Time;durP1;ratioP1;P1;durP2;ratioP2;P2;SDS_P1;SDS_P2;PMS_P1;PMS_P2;Temp;Humidity;BMP_temperature;BMP_pressure;BME280_temperature;BME280_humidity;BME280_pressure;Samples;Min_cycle;Max_cycle;Signal;HPM_P1;HPM_P2
2021/07/03 00:02:21;;;;;;;7.47;4.87;;;;;;;;;;5055313;28;20559;-64
2021/07/03 00:04:47;;;;;;;8.00;5.60;;;;;;;;;;5056310;28;20461;-64
2021/07/03 00:07:13;;;;;;;7.83;5.63;;;;;;;;;;5052868;28;20402;-64
2021/07/03 00:09:39;;;;;;;11.93;5.87;;;;;;;;;;5052681;28;20504;-64
2021/07/03 00:12:08;;;;;;;8.53;5.30;;;;;;;;;;5063120;28;20446;-64
2021/07/03 00:14:35;;;;;;;8.67;6.30;;;;;;;;;;5059883;28;20413;-65
2021/07/03 00:17:01;;;;;;;6.90;5.13;;;;;;;;;;5073046;28;20898;-64
2021/07/03 00:19:27;;;;;;;10.30;6.43;;;;;;;;;;5071767;28;20776;-64
2021/07/03 00:21:54;;;;;;;9.03;6.60;;;;;;;;;;5073372;28;20562;-64
2021/07/03 00:24:20;;;;;;;9.00;6.53;;;;;;;;;;5075989;28;20421;-64
2021/07/03 00:26:46;;;;;;;10.53;5.53;;;;;;;;;;5076857;28;20405;-64
2021/07/03 00:29:12;;;;;;;9.50;6.13;;;;;;;;;;5072291;28;20426;-64
2021/07/03 00:31:38;;;;;;;8.30;5.37;;;;;;;;;;5056881;28;20532;-64
2021/07/03 00:34:04;;;;;;;8.80;6.00;;;;;;;;;;5058602;28;20498;-64
2021/07/03 00:36:30;;;;;;;7.90;5.67;;;;;;;;;;5076790;28;20404;-65
2021/07/03 00:38:56;;;;;;;9.60;5.80;;;;;;;;;;5075600;28;20488;-65
2021/07/03 00:41:22;;;;;;;9.33;6.00;;;;;;;;;;5076543;28;20844;-64
2021/07/03 00:43:48;;;;;;;10.03;5.83;;;;;;;;;;5075564;28;20498;-66
2021/07/03 00:46:14;;;;;;;10.87;5.77;;;;;;;;;;5073594;28;20451;-64
2021/07/03 00:48:41;;;;;;;9.07;6.03;;;;;;;;;;5076494;28;20397;-64
2021/07/03 00:51:07;;;;;;;11.33;6.33;;;;;;;;;;5076034;28;20766;-64
2021/07/03 00:53:33;;;;;;;8.53;5.57;;;;;;;;;;5089785;28;20433;-64
2021/07/03 00:55:59;;;;;;;10.30;6.00;;;;;;;;;;5064798;28;20470;-64
2021/07/03 00:58:25;;;;;;;9.23;6.90;;;;;;;;;;5074304;28;20463;-63
2021/07/03 01:00:51;;;;;;;9.60;6.27;;;;;;;;;;5074805;28;20837;-65
2021/07/03 01:03:18;;;;;;;9.27;5.60;;;;;;;;;;5076593;28;20813;-63
2021/07/03 01:05:44;;;;;;;10.00;6.40;;;;;;;;;;5067301;28;20889;-65
2021/07/03 01:08:10;;;;;;;9.00;6.60;;;;;;;;;;5076177;28;20401;-64
2021/07/03 01:10:36;;;;;;;9.90;6.70;;;;;;;;;;5069548;28;20418;-65
2021/07/03 01:13:02;;;;;;;9.37;6.00;;;;;;;;;;5056154;28;20422;-63
2021/07/03 01:15:28;;;;;;;12.60;6.30;;;;;;;;;;5058952;28;20482;-63
2021/07/03 01:17:54;;;;;;;10.60;6.80;;;;;;;;;;5075869;28;20407;-64
2021/07/03 01:20:20;;;;;;;11.33;6.70;;;;;;;;;;5074363;28;20400;-67
2021/07/03 01:22:47;;;;;;;10.13;6.03;;;;;;;;;;5057672;28;20489;-63
2021/07/03 01:25:14;;;;;;;11.73;8.00;;;;;;;;;;5089047;28;20455;-65
2021/07/03 01:27:40;;;;;;;10.93;7.87;;;;;;;;;;5075933;28;20397;-63
2021/07/03 01:30:08;;;;;;;9.07;6.93;;;;;;;;;;5075001;28;20476;-65
2021/07/03 01:32:34;;;;;;;8.57;5.67;;;;;;;;;;5073575;28;20468;-65
2021/07/03 01:35:00;;;;;;;10.60;6.30;;;;;;;;;;5073325;28;20793;-65
2021/07/03 01:37:26;;;;;;;15.30;5.63;;;;;;;;;;5072773;28;20452;-63
2021/07/03 01:39:52;;;;;;;12.07;6.90;;;;;;;;;;5075532;28;20781;-63
2021/07/03 01:42:18;;;;;;;8.03;5.60;;;;;;;;;;5074316;28;20542;-63
2021/07/03 01:44:45;;;;;;;10.87;5.97;;;;;;;;;;5074149;28;20416;-64
2021/07/03 01:47:11;;;;;;;10.00;6.27;;;;;;;;;;5074733;28;20421;-64
2021/07/03 01:49:38;;;;;;;10.33;6.87;;;;;;;;;;5075371;28;20396;-63
2021/07/03 01:52:05;;;;;;;9.73;5.47;;;;;;;;;;5074483;28;20441;-63
2021/07/03 01:54:31;;;;;;;9.50;6.60;;;;;;;;;;5075366;28;20808;-66
2021/07/03 01:56:57;;;;;;;8.40;6.70;;;;;;;;;;5065531;28;20437;-64
2021/07/03 01:59:24;;;;;;;7.33;4.87;;;;;;;;;;5053962;28;20921;-63
2021/07/03 02:01:51;;;;;;;9.93;7.10;;;;;;;;;;5062930;28;20472;-63
2021/07/03 02:04:17;;;;;;;9.17;6.57;;;;;;;;;;5075451;28;20401;-65
2021/07/03 02:06:43;;;;;;;17.83;6.20;;;;;;;;;;5066478;28;20475;-64
2021/07/03 02:09:09;;;;;;;12.83;6.73;;;;;;;;;;5055126;28;20481;-63
2021/07/03 02:11:35;;;;;;;12.20;6.03;;;;;;;;;;5060297;28;20445;-63
2021/07/03 02:14:01;;;;;;;10.60;6.43;;;;;;;;;;5074909;28;20397;-65
2021/07/03 02:16:27;;;;;;;11.80;6.47;;;;;;;;;;5073904;28;20860;-64
2021/07/03 02:18:53;;;;;;;7.50;5.83;;;;;;;;;;5074763;28;20397;-63
2021/07/03 02:21:19;;;;;;;11.13;7.10;;;;;;;;;;5071203;28;20436;-64
2021/07/03 02:23:46;;;;;;;9.80;6.27;;;;;;;;;;5054611;28;20448;-63
2021/07/03 02:26:12;;;;;;;11.20;6.70;;;;;;;;;;5054574;28;20394;-63
2021/07/03 02:28:38;;;;;;;9.17;5.90;;;;;;;;;;5054615;28;20401;-66
2021/07/03 02:31:05;;;;;;;10.93;6.40;;;;;;;;;;5054632;28;20398;-64
2021/07/03 02:33:32;;;;;;;16.80;6.87;;;;;;;;;;5053535;28;20871;-63
2021/07/03 02:35:58;;;;;;;12.23;6.57;;;;;;;;;;5054509;28;20438;-63
2021/07/03 02:38:24;;;;;;;10.23;6.60;;;;;;;;;;5054646;28;20921;-66
2021/07/03 02:40:51;;;;;;;10.17;6.30;;;;;;;;;;5073429;28;20853;-64
2021/07/03 02:43:17;;;;;;;8.63;5.70;;;;;;;;;;5076908;28;20476;-64
2021/07/03 02:45:43;;;;;;;14.03;6.80;;;;;;;;;;5094235;28;20396;-64
2021/07/03 02:48:09;;;;;;;12.00;6.90;;;;;;;;;;5075893;28;20417;-64
2021/07/03 02:50:35;;;;;;;11.63;6.50;;;;;;;;;;5074398;28;20496;-64
2021/07/03 02:53:01;;;;;;;11.97;7.30;;;;;;;;;;5073321;28;20574;-64
2021/07/03 02:55:27;;;;;;;10.77;6.53;;;;;;;;;;5074142;28;20458;-64
2021/07/03 02:57:53;;;;;;;8.80;6.43;;;;;;;;;;5073043;28;20491;-64
2021/07/03 03:00:20;;;;;;;9.30;6.77;;;;;;;;;;5071734;28;20431;-65
2021/07/03 03:02:46;;;;;;;9.97;6.60;;;;;;;;;;5060027;28;20500;-63
2021/07/03 03:05:13;;;;;;;8.80;6.43;;;;;;;;;;5053876;28;20421;-64
2021/07/03 03:07:40;;;;;;;9.03;7.10;;;;;;;;;;5059753;28;20418;-65
2021/07/03 03:10:07;;;;;;;10.20;5.90;;;;;;;;;;5053849;28;20492;-65
2021/07/03 03:12:33;;;;;;;11.40;7.33;;;;;;;;;;5064244;28;20455;-65
2021/07/03 03:15:00;;;;;;;15.50;7.83;;;;;;;;;;5072716;28;20421;-65
2021/07/03 03:17:26;;;;;;;12.00;7.10;;;;;;;;;;5072664;28;20421;-64
2021/07/03 03:19:52;;;;;;;11.37;6.37;;;;;;;;;;5073544;28;20427;-64
2021/07/03 03:22:18;;;;;;;9.97;6.30;;;;;;;;;;5072585;28;20449;-63
2021/07/03 03:24:45;;;;;;;10.47;6.77;;;;;;;;;;5073475;28;20462;-64
2021/07/03 03:27:12;;;;;;;9.10;6.03;;;;;;;;;;5073702;28;20424;-65
2021/07/03 03:29:38;;;;;;;10.23;6.27;;;;;;;;;;5094022;28;20412;-64
2021/07/03 03:32:04;;;;;;;9.70;6.53;;;;;;;;;;5085783;28;20452;-65
2021/07/03 03:34:30;;;;;;;14.17;7.27;;;;;;;;;;5073425;28;20393;-65
2021/07/03 03:36:56;;;;;;;9.37;6.87;;;;;;;;;;5068076;28;20426;-65
2021/07/03 03:39:22;;;;;;;9.57;7.10;;;;;;;;;;5053421;28;20409;-65
2021/07/03 03:41:48;;;;;;;11.00;7.40;;;;;;;;;;5053245;28;20444;-65
2021/07/03 03:44:14;;;;;;;7.73;5.70;;;;;;;;;;5053115;28;20595;-65
2021/07/03 03:46:40;;;;;;;9.57;6.50;;;;;;;;;;5053591;28;20424;-65
2021/07/03 03:49:07;;;;;;;11.17;6.43;;;;;;;;;;5064116;28;20409;-65
2021/07/03 03:51:33;;;;;;;11.40;7.37;;;;;;;;;;5072086;28;20436;-65
2021/07/03 03:53:59;;;;;;;11.33;6.93;;;;;;;;;;5073352;28;20818;-65
2021/07/03 03:56:25;;;;;;;10.10;6.87;;;;;;;;;;5070980;28;20443;-65
2021/07/03 03:58:51;;;;;;;10.00;6.97;;;;;;;;;;5072101;28;20902;-65
2021/07/03 04:01:17;;;;;;;9.33;6.80;;;;;;;;;;5073594;28;20913;-65
2021/07/03 04:03:43;;;;;;;8.93;6.37;;;;;;;;;;5075636;28;20455;-65
2021/07/03 04:06:09;;;;;;;8.70;6.10;;;;;;;;;;5073407;28;20491;-65
2021/07/03 04:08:36;;;;;;;10.07;6.50;;;;;;;;;;5072371;28;20428;-65
2021/07/03 04:11:02;;;;;;;7.30;5.83;;;;;;;;;;5073087;28;20828;-65
2021/07/03 04:13:28;;;;;;;8.27;5.37;;;;;;;;;;5060845;28;20422;-65
2021/07/03 04:15:54;;;;;;;9.03;6.40;;;;;;;;;;5053138;28;20776;-65
2021/07/03 04:18:20;;;;;;;10.27;6.30;;;;;;;;;;5062332;28;20909;-65
2021/07/03 04:20:46;;;;;;;7.63;5.50;;;;;;;;;;5072912;28;20411;-65
2021/07/03 04:23:12;;;;;;;8.73;5.60;;;;;;;;;;5063491;28;20450;-65
2021/07/03 04:25:38;;;;;;;8.10;6.37;;;;;;;;;;5052796;28;20406;-65
2021/07/03 04:28:04;;;;;;;9.97;6.53;;;;;;;;;;5052679;28;20993;-65
2021/07/03 04:30:30;;;;;;;9.60;5.90;;;;;;;;;;5052584;28;20463;-66
2021/07/03 04:32:57;;;;;;;9.10;5.80;;;;;;;;;;5053039;28;20466;-63
2021/07/03 04:35:23;;;;;;;8.07;6.17;;;;;;;;;;5052632;28;20406;-64
2021/07/03 04:37:49;;;;;;;9.37;6.17;;;;;;;;;;5051211;28;20425;-62
2021/07/03 04:40:15;;;;;;;10.67;6.13;;;;;;;;;;5052696;28;20412;-64
2021/07/03 04:42:41;;;;;;;12.50;7.17;;;;;;;;;;5052513;28;20515;-65
2021/07/03 04:45:07;;;;;;;9.73;6.60;;;;;;;;;;5052831;28;20893;-64
2021/07/03 04:47:34;;;;;;;8.47;6.10;;;;;;;;;;5054502;28;20440;-64
2021/07/03 04:50:00;;;;;;;8.17;5.23;;;;;;;;;;5072851;28;20405;-64
2021/07/03 04:52:26;;;;;;;9.07;6.07;;;;;;;;;;5071107;28;20452;-63
2021/07/03 04:54:53;;;;;;;9.10;5.60;;;;;;;;;;5052774;28;20804;-65
2021/07/03 04:57:19;;;;;;;7.13;4.53;;;;;;;;;;5052316;28;20393;-63
2021/07/03 04:59:45;;;;;;;7.70;5.47;;;;;;;;;;5072132;28;20417;-64
2021/07/03 05:02:13;;;;;;;7.80;5.50;;;;;;;;;;5080028;28;20527;-64
2021/07/03 05:04:40;;;;;;;7.90;5.73;;;;;;;;;;5053408;28;20421;-64
2021/07/03 05:07:06;;;;;;;9.10;5.57;;;;;;;;;;5052320;28;20398;-64
2021/07/03 05:09:32;;;;;;;10.20;6.63;;;;;;;;;;5072986;28;20416;-66
2021/07/03 05:11:59;;;;;;;7.17;5.20;;;;;;;;;;5076229;28;20494;-64
2021/07/03 05:14:25;;;;;;;9.13;5.80;;;;;;;;;;5058823;28;20425;-64
2021/07/03 05:16:51;;;;;;;6.40;5.23;;;;;;;;;;5056048;28;20397;-64
2021/07/03 05:19:17;;;;;;;6.60;5.90;;;;;;;;;;5079755;28;20418;-64
2021/07/03 05:21:43;;;;;;;9.37;6.40;;;;;;;;;;5096535;28;20420;-64
2021/07/03 05:24:09;;;;;;;7.30;5.80;;;;;;;;;;5067650;28;20535;-64
2021/07/03 05:26:35;;;;;;;9.30;6.33;;;;;;;;;;5056084;28;20435;-64
2021/07/03 05:29:02;;;;;;;9.50;5.43;;;;;;;;;;5055678;28;20429;-64
2021/07/03 05:31:28;;;;;;;7.97;5.83;;;;;;;;;;5055492;28;20494;-64
2021/07/03 05:33:54;;;;;;;8.97;5.83;;;;;;;;;;5065601;28;20436;-62
2021/07/03 05:36:20;;;;;;;6.87;6.07;;;;;;;;;;5055544;28;20452;-64
2021/07/03 05:38:48;;;;;;;6.77;4.93;;;;;;;;;;5065418;28;20779;-64
2021/07/03 05:41:14;;;;;;;8.77;5.33;;;;;;;;;;5075392;28;20504;-64
2021/07/03 05:43:41;;;;;;;11.30;5.13;;;;;;;;;;5074307;28;20459;-65
2021/07/03 05:46:07;;;;;;;8.50;6.83;;;;;;;;;;5074136;28;20409;-63
2021/07/03 05:48:37;;;;;;;8.80;5.73;;;;;;;;;;5073944;28;20424;-63
2021/07/03 05:51:03;;;;;;;9.03;5.67;;;;;;;;;;5075163;28;20878;-63
2021/07/03 05:53:29;;;;;;;6.07;4.30;;;;;;;;;;5067497;28;20453;-63
2021/07/03 05:55:56;;;;;;;8.43;5.07;;;;;;;;;;5055470;28;20777;-63
2021/07/03 05:58:22;;;;;;;6.13;4.53;;;;;;;;;;5060591;28;20428;-63
2021/07/03 06:00:48;;;;;;;9.30;6.00;;;;;;;;;;5075207;28;20405;-64
2021/07/03 06:03:14;;;;;;;5.30;4.40;;;;;;;;;;5064503;28;20464;-64
2021/07/03 06:05:40;;;;;;;7.73;5.30;;;;;;;;;;5075181;28;20402;-63
2021/07/03 06:08:07;;;;;;;7.90;6.03;;;;;;;;;;5073770;28;20472;-66
2021/07/03 06:10:33;;;;;;;9.20;5.90;;;;;;;;;;5074114;28;20409;-65
2021/07/03 06:12:59;;;;;;;6.93;4.83;;;;;;;;;;5074665;28;20432;-64
2021/07/03 06:15:25;;;;;;;7.13;5.43;;;;;;;;;;5073447;28;20515;-64
2021/07/03 06:17:51;;;;;;;8.20;5.43;;;;;;;;;;5073103;28;20408;-64
2021/07/03 06:20:17;;;;;;;6.30;4.90;;;;;;;;;;5072798;28;20441;-64
2021/07/03 06:22:43;;;;;;;7.00;4.83;;;;;;;;;;5074370;28;20445;-64
2021/07/03 06:25:10;;;;;;;5.80;4.60;;;;;;;;;;5073290;28;20992;-64
2021/07/03 06:27:37;;;;;;;7.93;5.20;;;;;;;;;;5074588;28;20492;-64
2021/07/03 06:30:04;;;;;;;6.53;5.20;;;;;;;;;;5073530;28;20421;-64
2021/07/03 06:32:30;;;;;;;6.00;4.70;;;;;;;;;;5074351;28;20497;-64
2021/07/03 06:34:56;;;;;;;8.00;4.73;;;;;;;;;;5073380;28;20432;-64
2021/07/03 06:37:22;;;;;;;8.07;5.00;;;;;;;;;;5074542;28;20397;-64
2021/07/03 06:39:48;;;;;;;8.57;5.03;;;;;;;;;;5062736;28;20778;-65
2021/07/03 06:42:14;;;;;;;5.10;4.00;;;;;;;;;;5055215;28;20413;-64
2021/07/03 06:44:42;;;;;;;6.10;4.53;;;;;;;;;;5068974;28;20421;-64
2021/07/03 06:47:08;;;;;;;6.97;4.83;;;;;;;;;;5054306;28;20481;-65
2021/07/03 06:49:34;;;;;;;9.90;6.23;;;;;;;;;;5062747;28;20500;-64
2021/07/03 06:52:00;;;;;;;7.33;4.93;;;;;;;;;;5073902;28;20421;-65
2021/07/03 06:54:26;;;;;;;10.20;4.93;;;;;;;;;;5073081;28;20425;-65
2021/07/03 06:56:57;;;;;;;6.10;4.20;;;;;;;;;;5073685;28;20405;-65
2021/07/03 06:59:24;;;;;;;5.30;4.23;;;;;;;;;;5066310;28;20762;-65
2021/07/03 07:01:50;;;;;;;6.20;4.80;;;;;;;;;;5053487;28;20421;-65
2021/07/03 07:04:17;;;;;;;8.03;5.00;;;;;;;;;;5057543;28;20520;-65
2021/07/03 07:06:43;;;;;;;6.97;4.43;;;;;;;;;;5073655;28;20401;-65
2021/07/03 07:09:10;;;;;;;7.00;4.23;;;;;;;;;;5072232;28;20420;-65
2021/07/03 07:11:36;;;;;;;7.00;4.80;;;;;;;;;;5073236;28;20602;-65
2021/07/03 07:14:02;;;;;;;5.43;3.90;;;;;;;;;;5072406;28;20424;-65
2021/07/03 07:16:28;;;;;;;7.27;4.73;;;;;;;;;;5072349;28;20867;-64
2021/07/03 07:18:54;;;;;;;6.30;4.60;;;;;;;;;;5072104;28;20438;-65
2021/07/03 07:21:20;;;;;;;7.90;5.50;;;;;;;;;;5073546;28;20428;-65
2021/07/03 07:23:46;;;;;;;7.90;4.53;;;;;;;;;;5072459;28;20449;-66
2021/07/03 07:26:12;;;;;;;5.77;4.40;;;;;;;;;;5053341;28;20422;-64
2021/07/03 07:28:38;;;;;;;6.10;5.00;;;;;;;;;;5053400;28;20454;-64
2021/07/03 07:31:04;;;;;;;7.13;4.63;;;;;;;;;;5084645;28;20435;-66
2021/07/03 07:33:30;;;;;;;5.33;4.03;;;;;;;;;;5093711;28;20389;-66
2021/07/03 07:35:56;;;;;;;5.50;4.33;;;;;;;;;;5074086;28;20447;-65
2021/07/03 07:38:22;;;;;;;4.63;3.67;;;;;;;;;;5073135;28;20405;-64
2021/07/03 07:40:48;;;;;;;6.90;4.70;;;;;;;;;;5054781;28;20483;-64
2021/07/03 07:43:15;;;;;;;5.40;4.60;;;;;;;;;;5053295;28;20453;-63
2021/07/03 07:45:41;;;;;;;5.43;4.10;;;;;;;;;;5067582;28;20563;-64
2021/07/03 07:48:07;;;;;;;5.10;3.50;;;;;;;;;;5073387;28;20408;-65
2021/07/03 07:50:33;;;;;;;6.20;3.77;;;;;;;;;;5071723;28;20908;-65
2021/07/03 07:52:59;;;;;;;8.10;4.90;;;;;;;;;;5065512;28;20599;-65
2021/07/03 07:55:25;;;;;;;6.30;4.67;;;;;;;;;;5065000;28;20500;-65
2021/07/03 07:57:51;;;;;;;6.43;4.40;;;;;;;;;;5073081;28;20505;-65
2021/07/03 08:00:18;;;;;;;5.50;4.50;;;;;;;;;;5072164;28;20925;-65
2021/07/03 08:02:45;;;;;;;6.10;3.90;;;;;;;;;;5073227;28;20498;-66
2021/07/03 08:05:11;;;;;;;9.33;5.00;;;;;;;;;;5062939;28;20827;-65
2021/07/03 08:07:37;;;;;;;6.90;4.60;;;;;;;;;;5053605;28;20417;-65
2021/07/03 08:10:03;;;;;;;5.47;3.53;;;;;;;;;;5060348;28;20458;-65
2021/07/03 08:12:29;;;;;;;7.40;4.87;;;;;;;;;;5073065;28;20531;-65
2021/07/03 08:14:55;;;;;;;4.40;3.60;;;;;;;;;;5082476;28;20464;-64
2021/07/03 08:17:21;;;;;;;6.20;4.07;;;;;;;;;;5073376;28;20409;-65
2021/07/03 08:19:48;;;;;;;5.60;4.03;;;;;;;;;;5065394;28;20426;-65
2021/07/03 08:22:14;;;;;;;8.63;4.20;;;;;;;;;;5052601;28;20474;-64
2021/07/03 08:24:40;;;;;;;4.67;4.00;;;;;;;;;;5070660;28;20417;-64
2021/07/03 08:27:06;;;;;;;5.10;4.10;;;;;;;;;;5052651;28;20424;-64
2021/07/03 08:29:32;;;;;;;5.37;4.40;;;;;;;;;;5055821;28;20850;-64
2021/07/03 08:31:58;;;;;;;6.50;4.20;;;;;;;;;;5072577;28;20433;-64
2021/07/03 08:34:24;;;;;;;7.43;3.97;;;;;;;;;;5071835;28;20785;-65
2021/07/03 08:36:50;;;;;;;6.23;4.50;;;;;;;;;;5072549;28;20397;-63
2021/07/03 08:39:16;;;;;;;6.27;4.03;;;;;;;;;;5071871;28;20404;-64
2021/07/03 08:41:42;;;;;;;7.83;4.73;;;;;;;;;;5072824;28;20459;-63
2021/07/03 08:44:10;;;;;;;5.30;3.50;;;;;;;;;;5075455;28;20925;-64
2021/07/03 08:46:36;;;;;;;7.20;4.53;;;;;;;;;;5056847;28;20441;-65
2021/07/03 08:49:03;;;;;;;5.83;3.80;;;;;;;;;;5056483;28;20408;-65
2021/07/03 08:51:29;;;;;;;6.47;4.00;;;;;;;;;;5074218;28;20432;-64
2021/07/03 08:53:55;;;;;;;5.33;3.73;;;;;;;;;;5074578;28;20477;-64
2021/07/03 08:56:21;;;;;;;5.53;4.30;;;;;;;;;;5072764;28;20414;-64
2021/07/03 08:58:49;;;;;;;7.33;5.00;;;;;;;;;;5076423;28;20393;-64
2021/07/03 09:01:15;;;;;;;4.73;3.63;;;;;;;;;;5059463;28;20448;-65
2021/07/03 09:03:50;;;;;;;5.73;4.43;;;;;;;;;;5056062;28;20938;-64
2021/07/03 09:06:16;;;;;;;6.50;4.43;;;;;;;;;;5071498;28;20932;-64
2021/07/03 09:08:52;;;;;;;6.73;4.07;;;;;;;;;;5076093;28;20393;-64
2021/07/03 09:11:18;;;;;;;6.40;4.30;;;;;;;;;;5059435;28;20478;-65
2021/07/03 09:13:45;;;;;;;5.40;3.93;;;;;;;;;;5056043;28;20398;-64
2021/07/03 09:16:11;;;;;;;8.50;5.20;;;;;;;;;;5070258;28;20425;-64
2021/07/03 09:18:37;;;;;;;8.23;4.90;;;;;;;;;;5075803;28;20408;-65
2021/07/03 09:21:07;;;;;;;6.63;4.90;;;;;;;;;;5074893;28;20431;-65
2021/07/03 09:23:39;;;;;;;8.13;4.30;;;;;;;;;;5075526;28;21013;-65
2021/07/03 09:26:10;;;;;;;6.80;4.70;;;;;;;;;;5072324;28;20497;-64
2021/07/03 09:28:38;;;;;;;6.10;4.60;;;;;;;;;;5075665;28;20746;-65
2021/07/03 09:31:05;;;;;;;6.23;4.33;;;;;;;;;;5073119;28;20787;-66
2021/07/03 09:33:35;;;;;;;6.07;4.60;;;;;;;;;;5076152;28;20420;-65
2021/07/03 09:36:02;;;;;;;6.17;4.60;;;;;;;;;;5074971;28;20420;-63
2021/07/03 09:38:40;;;;;;;5.80;3.27;;;;;;;;;;5075684;28;20452;-64
2021/07/03 09:41:09;;;;;;;5.80;4.20;;;;;;;;;;5074256;28;20435;-63
2021/07/03 09:43:36;;;;;;;6.80;4.50;;;;;;;;;;5075649;28;20531;-64
2021/07/03 09:46:02;;;;;;;6.37;4.90;;;;;;;;;;5071093;28;20431;-65
2021/07/03 09:48:28;;;;;;;5.70;4.00;;;;;;;;;;5074108;28;20408;-66
2021/07/03 09:50:54;;;;;;;4.73;3.73;;;;;;;;;;5072782;28;20421;-64
2021/07/03 09:53:20;;;;;;;6.40;4.20;;;;;;;;;;5073847;28;20746;-68
2021/07/03 09:55:46;;;;;;;5.90;3.97;;;;;;;;;;5072700;28;20433;-64
2021/07/03 09:58:12;;;;;;;7.10;4.87;;;;;;;;;;5074430;28;20408;-65
2021/07/03 10:00:39;;;;;;;7.07;4.30;;;;;;;;;;5074197;28;20793;-67
2021/07/03 10:03:08;;;;;;;5.10;4.03;;;;;;;;;;5072469;28;20448;-64
2021/07/03 10:05:44;;;;;;;8.10;4.60;;;;;;;;;;5072173;28;20474;-65
2021/07/03 10:08:12;;;;;;;7.93;4.47;;;;;;;;;;5073633;28;20744;-65
2021/07/03 10:10:39;;;;;;;9.07;4.67;;;;;;;;;;5072515;28;20413;-64
2021/07/03 10:13:07;;;;;;;9.03;5.70;;;;;;;;;;5074953;28;20432;-64
2021/07/03 10:15:35;;;;;;;8.40;5.00;;;;;;;;;;5073566;28;20478;-64
2021/07/03 10:18:14;;;;;;;6.60;4.90;;;;;;;;;;5078286;28;20447;-64
2021/07/03 10:20:42;;;;;;;6.40;4.90;;;;;;;;;;5079281;28;20964;-65
2021/07/03 10:23:08;;;;;;;8.00;5.60;;;;;;;;;;5075236;28;20490;-65
2021/07/03 10:25:41;;;;;;;6.50;5.00;;;;;;;;;;5074724;28;20482;-65
2021/07/03 10:28:09;;;;;;;5.33;4.13;;;;;;;;;;5074081;28;20408;-66
2021/07/03 10:30:36;;;;;;;8.33;5.57;;;;;;;;;;5072946;28;20412;-66
2021/07/03 10:33:02;;;;;;;7.07;4.80;;;;;;;;;;5073990;28;20475;-67
2021/07/03 10:35:39;;;;;;;6.73;4.93;;;;;;;;;;5073544;28;20416;-66
2021/07/03 10:38:20;;;;;;;7.27;5.33;;;;;;;;;;5074292;28;20473;-66
2021/07/03 10:40:46;;;;;;;6.97;4.73;;;;;;;;;;5073044;28;20951;-66
2021/07/03 10:43:14;;;;;;;6.47;4.67;;;;;;;;;;5072561;28;20456;-67
2021/07/03 10:45:47;;;;;;;7.93;4.43;;;;;;;;;;5073008;28;20397;-68
2021/07/03 10:48:23;;;;;;;8.70;4.73;;;;;;;;;;5073610;28;20401;-66
2021/07/03 10:50:51;;;;;;;5.63;4.20;;;;;;;;;;5073351;28;20412;-67
2021/07/03 10:53:28;;;;;;;8.57;5.30;;;;;;;;;;5071114;28;20429;-70
2021/07/03 10:55:55;;;;;;;5.97;4.40;;;;;;;;;;5073064;28;20428;-72
2021/07/03 10:58:22;;;;;;;6.80;5.03;;;;;;;;;;5074311;28;20413;-66
2021/07/03 11:00:51;;;;;;;8.67;4.97;;;;;;;;;;5055737;28;20437;-66
2021/07/03 11:03:23;;;;;;;5.83;4.90;;;;;;;;;;5093320;28;20459;-69
2021/07/03 11:05:50;;;;;;;6.60;5.00;;;;;;;;;;5090234;28;20429;-68
2021/07/03 11:08:19;;;;;;;6.90;4.27;;;;;;;;;;5072899;28;20400;-70
2021/07/03 11:10:45;;;;;;;6.30;4.20;;;;;;;;;;5072063;28;20420;-68
2021/07/03 11:13:18;;;;;;;6.40;4.57;;;;;;;;;;5073989;28;20523;-70
2021/07/03 11:15:44;;;;;;;6.10;4.07;;;;;;;;;;5072570;28;20409;-66
2021/07/03 11:18:11;;;;;;;6.50;4.73;;;;;;;;;;5073461;28;20434;-67
2021/07/03 11:20:40;;;;;;;4.70;4.00;;;;;;;;;;5072635;28;20405;-68
2021/07/03 11:23:06;;;;;;;5.60;4.30;;;;;;;;;;5071171;28;20483;-67
2021/07/03 11:25:34;;;;;;;5.20;4.00;;;;;;;;;;5072276;28;20476;-66
2021/07/03 11:28:13;;;;;;;7.53;4.50;;;;;;;;;;5073066;28;20507;-66
2021/07/03 11:30:43;;;;;;;5.37;4.10;;;;;;;;;;5071495;28;20421;-66
2021/07/03 11:33:10;;;;;;;5.67;4.27;;;;;;;;;;5093690;28;20439;-66
2021/07/03 11:35:39;;;;;;;5.87;4.10;;;;;;;;;;5093644;28;20391;-66
2021/07/03 11:38:05;;;;;;;6.50;4.70;;;;;;;;;;5053895;28;20421;-66
2021/07/03 11:40:33;;;;;;;5.07;4.07;;;;;;;;;;5053368;28;20531;-66
2021/07/03 11:43:00;;;;;;;5.40;4.40;;;;;;;;;;5053521;28;20460;-66
2021/07/03 11:45:28;;;;;;;6.60;4.47;;;;;;;;;;5053180;28;20462;-66
2021/07/03 11:48:16;;;;;;;5.50;4.60;;;;;;;;;;5019486;28;20502;-66
2021/07/03 11:50:46;;;;;;;5.50;3.77;;;;;;;;;;5053011;28;20428;-69
2021/07/03 11:53:13;;;;;;;5.70;4.07;;;;;;;;;;5052947;28;20426;-66
2021/07/03 11:55:41;;;;;;;6.10;4.43;;;;;;;;;;5053053;28;20978;-66
2021/07/03 11:58:10;;;;;;;4.43;3.60;;;;;;;;;;5072033;28;20436;-66
2021/07/03 12:00:37;;;;;;;5.13;3.93;;;;;;;;;;5073075;28;20404;-66
2021/07/03 12:03:10;;;;;;;4.70;3.87;;;;;;;;;;5071914;28;20471;-66
2021/07/03 12:05:40;;;;;;;5.70;4.50;;;;;;;;;;5060178;28;20437;-66
2021/07/03 12:08:07;;;;;;;5.20;3.80;;;;;;;;;;5053230;28;20484;-66
2021/07/03 12:10:33;;;;;;;7.03;4.17;;;;;;;;;;5052899;28;20795;-66
2021/07/03 12:12:59;;;;;;;4.57;3.10;;;;;;;;;;5069662;28;20818;-65
2021/07/03 12:15:25;;;;;;;5.30;3.73;;;;;;;;;;5072727;28;20483;-66
2021/07/03 12:17:52;;;;;;;6.57;4.53;;;;;;;;;;5070718;28;20460;-66
2021/07/03 12:20:19;;;;;;;6.00;3.20;;;;;;;;;;5072495;28;20408;-65
2021/07/03 12:22:59;;;;;;;5.57;4.23;;;;;;;;;;5056657;28;20465;-66
2021/07/03 12:25:25;;;;;;;9.33;4.33;;;;;;;;;;5052794;28;20431;-65
2021/07/03 12:27:54;;;;;;;5.20;4.20;;;;;;;;;;5052822;28;20512;-65
2021/07/03 12:30:21;;;;;;;4.83;4.03;;;;;;;;;;5052363;28;20424;-65
2021/07/03 12:32:47;;;;;;;5.90;4.30;;;;;;;;;;5067318;28;20467;-65
2021/07/03 12:35:13;;;;;;;5.17;3.80;;;;;;;;;;5072497;28;20550;-65
2021/07/03 12:37:39;;;;;;;4.17;3.03;;;;;;;;;;5070038;28;20800;-65
2021/07/03 12:40:16;;;;;;;4.60;3.60;;;;;;;;;;5088246;28;20496;-65
2021/07/03 12:42:42;;;;;;;5.20;4.23;;;;;;;;;;5076741;28;20617;-65
2021/07/03 12:45:09;;;;;;;4.87;3.20;;;;;;;;;;5072740;28;20798;-65
2021/07/03 12:47:37;;;;;;;5.67;4.60;;;;;;;;;;5071164;28;20447;-65
2021/07/03 12:50:04;;;;;;;5.90;4.30;;;;;;;;;;5072329;28;20408;-65
2021/07/03 12:52:38;;;;;;;6.03;4.67;;;;;;;;;;5070605;28;20909;-65
2021/07/03 12:55:05;;;;;;;5.83;4.10;;;;;;;;;;5072019;28;20385;-65
2021/07/03 12:57:41;;;;;;;4.57;3.80;;;;;;;;;;5069840;28;20420;-65
2021/07/03 13:00:07;;;;;;;7.27;3.40;;;;;;;;;;5072905;28;20384;-66
2021/07/03 13:02:35;;;;;;;4.93;3.73;;;;;;;;;;5071453;28;20854;-64
2021/07/03 13:05:01;;;;;;;8.07;4.17;;;;;;;;;;5070672;28;20474;-64
2021/07/03 13:07:27;;;;;;;7.70;4.53;;;;;;;;;;5070702;28;20431;-64
2021/07/03 13:09:53;;;;;;;5.30;3.97;;;;;;;;;;5072193;28;20549;-64
2021/07/03 13:12:19;;;;;;;4.93;3.60;;;;;;;;;;5066454;28;20524;-64
2021/07/03 13:14:46;;;;;;;4.83;4.00;;;;;;;;;;5052399;28;20715;-66
2021/07/03 13:17:12;;;;;;;4.90;3.77;;;;;;;;;;5055539;28;20447;-64
2021/07/03 13:19:38;;;;;;;4.80;3.80;;;;;;;;;;5071263;28;20428;-64
2021/07/03 13:22:04;;;;;;;4.40;3.70;;;;;;;;;;5070965;28;20456;-66
2021/07/03 13:24:30;;;;;;;5.47;4.20;;;;;;;;;;5070689;28;20459;-65
2021/07/03 13:26:56;;;;;;;6.43;4.00;;;;;;;;;;5070158;28;20397;-65
2021/07/03 13:29:22;;;;;;;4.90;4.30;;;;;;;;;;5053516;28;20393;-65
2021/07/03 13:31:48;;;;;;;8.50;3.87;;;;;;;;;;5055185;28;20519;-66
2021/07/03 13:34:17;;;;;;;5.73;4.10;;;;;;;;;;5058796;28;20433;-65
2021/07/03 13:36:43;;;;;;;4.83;3.60;;;;;;;;;;5055528;28;20413;-65
2021/07/03 13:39:09;;;;;;;5.83;3.73;;;;;;;;;;5074242;28;20916;-65
2021/07/03 13:41:35;;;;;;;4.23;3.67;;;;;;;;;;5075506;28;20470;-65
2021/07/03 13:44:01;;;;;;;5.10;3.93;;;;;;;;;;5074254;28;21023;-65
2021/07/03 13:46:27;;;;;;;6.40;4.13;;;;;;;;;;5075605;28;20405;-65
2021/07/03 13:48:53;;;;;;;6.70;3.90;;;;;;;;;;5074047;28;20420;-65
2021/07/03 13:51:19;;;;;;;5.83;4.27;;;;;;;;;;5074048;28;20497;-64
2021/07/03 13:53:45;;;;;;;4.63;3.73;;;;;;;;;;5073890;28;20437;-65
2021/07/03 13:56:11;;;;;;;5.20;3.80;;;;;;;;;;5075426;28;20416;-65
2021/07/03 13:58:37;;;;;;;4.93;3.43;;;;;;;;;;5073863;28;20421;-65
2021/07/03 14:01:06;;;;;;;5.23;3.63;;;;;;;;;;5075030;28;20408;-65
2021/07/03 14:03:32;;;;;;;6.27;3.60;;;;;;;;;;5074017;28;20448;-65
2021/07/03 14:05:58;;;;;;;5.97;3.80;;;;;;;;;;5074985;28;20772;-65
2021/07/03 14:08:24;;;;;;;5.27;3.80;;;;;;;;;;5061512;28;20432;-65
2021/07/03 14:10:50;;;;;;;5.10;3.33;;;;;;;;;;5054958;28;20491;-65
2021/07/03 14:13:16;;;;;;;5.63;3.63;;;;;;;;;;5064227;28;20479;-65
2021/07/03 14:15:42;;;;;;;6.10;3.40;;;;;;;;;;5074650;28;20411;-65
2021/07/03 14:18:08;;;;;;;4.50;3.77;;;;;;;;;;5073304;28;20524;-65
2021/07/03 14:20:35;;;;;;;5.63;3.80;;;;;;;;;;5073096;28;20425;-65
2021/07/03 14:23:01;;;;;;;6.60;4.00;;;;;;;;;;5065720;28;20534;-65
2021/07/03 14:25:27;;;;;;;5.27;3.40;;;;;;;;;;5054519;28;20409;-65
2021/07/03 14:27:53;;;;;;;4.60;3.60;;;;;;;;;;5063895;28;20515;-65
2021/07/03 14:30:20;;;;;;;4.30;3.30;;;;;;;;;;5074525;28;20411;-65
2021/07/03 14:32:46;;;;;;;3.97;3.50;;;;;;;;;;5068270;28;20465;-66
2021/07/03 14:35:12;;;;;;;5.50;3.80;;;;;;;;;;5054090;28;20402;-66
2021/07/03 14:37:38;;;;;;;4.47;3.60;;;;;;;;;;5054227;28;20434;-65
2021/07/03 14:40:05;;;;;;;4.20;3.07;;;;;;;;;;5054091;28;20409;-65